createdAt,value
2019-05-11T00:01:57.853Z,16.25
2019-05-11T00:04:26.522Z,16.50
2019-05-11T00:06:55.057Z,14.35
2019-05-11T00:09:23.522Z,14.10
2019-05-11T00:11:52.116Z,15.13
2019-05-11T00:14:20.580Z,14.65
2019-05-11T00:16:49.135Z,14.60
2019-05-11T00:19:17.600Z,15.23
2019-05-11T00:21:46.322Z,15.03
2019-05-11T00:24:14.865Z,13.78
2019-05-11T00:26:43.692Z,13.65
2019-05-11T00:29:12.292Z,15.75
2019-05-11T00:31:40.925Z,13.43
2019-05-11T00:34:09.537Z,14.07
2019-05-11T00:36:38.108Z,14.43
2019-05-11T00:39:08.339Z,12.60
2019-05-11T00:41:36.878Z,11.97
2019-05-11T00:44:05.515Z,11.97
2019-05-11T00:46:34.219Z,12.05
2019-05-11T00:49:03.224Z,11.22
2019-05-11T00:51:31.939Z,11.55
2019-05-11T00:54:00.557Z,11.95
2019-05-11T00:56:29.202Z,12.15
2019-05-11T00:58:57.843Z,12.05
2019-05-11T01:01:26.723Z,14.33
2019-05-11T01:03:55.417Z,14.38
2019-05-11T01:06:24.374Z,13.55
2019-05-11T01:08:52.832Z,14.85
2019-05-11T01:11:21.439Z,13.15
2019-05-11T01:13:50.015Z,14.60
2019-05-11T01:16:18.625Z,14.43
2019-05-11T01:18:47.175Z,13.05
2019-05-11T01:21:15.713Z,13.50
2019-05-11T01:23:44.328Z,12.78
2019-05-11T01:26:12.928Z,12.28
2019-05-11T01:28:41.464Z,12.33
2019-05-11T01:31:10.182Z,12.88
2019-05-11T01:33:38.783Z,13.20
2019-05-11T01:36:07.297Z,12.65
2019-05-11T01:38:35.938Z,11.88
2019-05-11T01:41:04.578Z,12.47
2019-05-11T01:43:33.124Z,13.32
2019-05-11T01:46:01.793Z,12.23
2019-05-11T01:48:31.811Z,11.55
2019-05-11T01:51:00.561Z,12.30
2019-05-11T01:53:29.037Z,12.05
2019-05-11T01:55:57.578Z,12.37
2019-05-11T01:58:26.191Z,12.45
2019-05-11T02:00:54.740Z,10.98
2019-05-11T02:03:23.278Z,11.95
2019-05-11T02:05:51.851Z,12.05
2019-05-11T02:08:20.418Z,11.57
2019-05-11T02:10:49.038Z,10.95
2019-05-11T02:13:19.187Z,11.55
2019-05-11T02:15:47.792Z,12.90
2019-05-11T02:18:16.476Z,13.45
2019-05-11T02:20:45.083Z,11.97
2019-05-11T02:23:13.693Z,13.38
2019-05-11T02:25:42.226Z,13.43
2019-05-11T02:28:10.775Z,14.40
2019-05-11T02:30:39.320Z,13.00
2019-05-11T02:33:07.957Z,14.15
2019-05-11T02:35:36.651Z,13.22
2019-05-11T02:38:05.298Z,13.78
2019-05-11T02:40:34.066Z,12.47
2019-05-11T02:43:02.627Z,13.00
2019-05-11T02:45:37.285Z,13.95
2019-05-11T02:48:06.214Z,13.50
2019-05-11T02:50:37.332Z,13.85
2019-05-11T02:53:07.038Z,13.30
2019-05-11T02:55:36.683Z,14.53
2019-05-11T02:58:07.064Z,14.33
2019-05-11T03:00:40.768Z,14.85
2019-05-11T03:03:09.722Z,14.15
2019-05-11T03:05:38.321Z,12.95
2019-05-11T03:08:06.955Z,13.25
2019-05-11T03:10:35.573Z,14.15
2019-05-11T03:13:04.553Z,14.78
2019-05-11T03:15:33.193Z,13.78
2019-05-11T03:18:01.828Z,14.78
2019-05-11T03:20:30.434Z,14.58
2019-05-11T03:22:59.304Z,14.75
2019-05-11T03:25:27.834Z,14.83
2019-05-11T03:27:56.468Z,16.25
2019-05-11T03:30:25.083Z,15.53
2019-05-11T03:32:53.760Z,15.43
2019-05-11T03:35:22.324Z,15.50
2019-05-11T03:37:50.887Z,15.75
2019-05-11T03:40:19.724Z,15.68
2019-05-11T03:42:48.248Z,15.38
2019-05-11T03:45:17.152Z,16.10
2019-05-11T03:47:45.743Z,19.23
2019-05-11T03:50:15.140Z,19.05
2019-05-11T03:52:43.699Z,18.45
2019-05-11T03:55:12.708Z,14.80
2019-05-11T03:57:41.255Z,15.75
2019-05-11T04:00:11.088Z,18.42
2019-05-11T04:02:39.736Z,18.85
2019-05-11T04:05:08.674Z,16.80
2019-05-11T04:07:37.311Z,15.63
2019-05-11T04:10:07.312Z,18.82
2019-05-11T04:12:36.008Z,16.67
2019-05-11T04:15:09.243Z,13.95
2019-05-11T04:17:37.853Z,16.07
2019-05-11T04:20:06.964Z,17.32
2019-05-11T04:22:35.576Z,13.62
2019-05-11T04:25:05.227Z,13.43
2019-05-11T04:27:33.868Z,13.53
2019-05-11T04:30:02.504Z,12.10
2019-05-11T04:32:31.246Z,12.28
2019-05-11T04:34:59.852Z,13.90
2019-05-11T04:37:28.557Z,11.10
2019-05-11T04:39:57.029Z,11.88
2019-05-11T04:42:25.543Z,10.80
2019-05-11T04:44:54.283Z,11.65
2019-05-11T04:47:22.897Z,14.33
2019-05-11T04:49:51.549Z,14.00
2019-05-11T04:52:20.292Z,14.03
2019-05-11T04:54:48.835Z,13.35
2019-05-11T04:57:17.384Z,13.55
2019-05-11T04:59:46.024Z,13.40
2019-05-11T05:02:14.703Z,12.75
2019-05-11T05:04:43.243Z,13.22
2019-05-11T05:07:12.345Z,14.15
2019-05-11T05:09:42.967Z,13.85
2019-05-11T05:12:13.998Z,13.68
2019-05-11T05:14:41.471Z,11.45
2019-05-11T05:17:10.096Z,12.00
2019-05-11T05:19:38.723Z,11.75
2019-05-11T05:22:07.253Z,12.75
2019-05-11T05:24:35.868Z,11.08
2019-05-11T05:27:04.480Z,10.58
2019-05-11T05:29:33.074Z,11.90
2019-05-11T05:32:01.570Z,12.45
2019-05-11T05:34:30.274Z,10.75
2019-05-11T05:36:58.823Z,10.68
2019-05-11T05:39:27.405Z,11.33
2019-05-11T05:41:57.398Z,11.63
2019-05-11T05:44:27.955Z,10.90
2019-05-11T05:46:57.006Z,10.88
2019-05-11T05:49:25.586Z,8.13
2019-05-11T05:51:57.987Z,9.30
2019-05-11T05:54:24.421Z,11.45
2019-05-11T05:56:52.892Z,10.82
2019-05-11T05:59:21.365Z,10.72
2019-05-11T06:01:49.835Z,10.00
2019-05-11T06:04:18.381Z,9.43
2019-05-11T06:06:46.844Z,8.60
2019-05-11T06:09:15.451Z,8.65
2019-05-11T06:11:44.039Z,9.03
2019-05-11T06:14:13.327Z,8.75
2019-05-11T06:16:41.902Z,7.45
2019-05-11T06:19:10.780Z,8.10
2019-05-11T06:21:39.314Z,7.55
2019-05-11T06:24:08.660Z,6.83
2019-05-11T06:26:37.762Z,7.33
2019-05-11T06:29:06.438Z,8.35
2019-05-11T06:31:34.993Z,8.80
2019-05-11T06:34:03.605Z,9.53
2019-05-11T06:36:32.259Z,8.78
2019-05-11T06:39:00.726Z,8.03
2019-05-11T06:41:29.342Z,7.83
2019-05-11T06:44:01.666Z,8.43
2019-05-11T06:46:28.132Z,8.55
2019-05-11T06:48:56.829Z,9.08
2019-05-11T06:51:25.457Z,8.48
2019-05-11T06:53:54.035Z,9.00
2019-05-11T06:56:22.585Z,8.68
2019-05-11T06:58:51.205Z,8.43
2019-05-11T07:01:19.813Z,7.78
2019-05-11T07:03:48.317Z,7.22
2019-05-11T07:06:16.882Z,7.37
2019-05-11T07:08:45.342Z,7.90
2019-05-11T07:11:13.948Z,7.30
2019-05-11T07:13:42.491Z,7.65
2019-05-11T07:16:11.043Z,7.72
2019-05-11T07:18:39.643Z,7.62
2019-05-11T07:21:08.158Z,7.78
2019-05-11T07:23:36.794Z,7.72
2019-05-11T07:26:05.437Z,7.45
2019-05-11T07:28:34.063Z,6.95
2019-05-11T07:31:02.625Z,8.23
2019-05-11T07:33:31.236Z,7.58
2019-05-11T07:35:59.761Z,8.60
2019-05-11T07:38:28.280Z,8.15
2019-05-11T07:40:58.279Z,8.65
2019-05-11T07:43:28.866Z,7.83
2019-05-11T07:45:58.451Z,6.90
2019-05-11T07:48:27.999Z,7.67
2019-05-11T07:50:58.445Z,6.58
2019-05-11T07:53:27.987Z,7.17
2019-05-11T07:55:57.781Z,6.80
2019-05-11T07:58:28.479Z,8.23
2019-05-11T08:00:58.145Z,7.40
2019-05-11T08:03:28.353Z,6.58
2019-05-11T08:05:58.270Z,7.15
2019-05-11T08:08:28.420Z,7.97
2019-05-11T08:10:58.672Z,6.72
2019-05-11T08:13:28.239Z,7.90
2019-05-11T08:15:57.863Z,6.70
2019-05-11T08:18:28.239Z,6.55
2019-05-11T08:20:58.278Z,7.05
2019-05-11T08:23:28.517Z,7.37
2019-05-11T08:25:58.153Z,7.70
2019-05-11T08:28:28.787Z,6.80
2019-05-11T08:30:57.885Z,6.22
2019-05-11T08:33:28.419Z,6.97
2019-05-11T08:35:58.311Z,6.72
2019-05-11T08:38:28.539Z,5.95
2019-05-11T08:40:59.014Z,6.95
2019-05-11T08:43:28.640Z,7.00
2019-05-11T08:45:57.968Z,7.97
2019-05-11T08:48:28.325Z,7.30
2019-05-11T08:50:58.257Z,7.67
2019-05-11T08:53:28.399Z,6.08
2019-05-11T08:55:58.827Z,7.85
2019-05-11T08:58:27.933Z,7.37
2019-05-11T09:00:58.236Z,6.55
2019-05-11T09:03:28.430Z,7.83
2019-05-11T09:05:57.954Z,7.50
2019-05-11T09:08:28.287Z,7.60
2019-05-11T09:10:58.196Z,8.93
2019-05-11T09:13:27.987Z,8.00
2019-05-11T09:15:58.853Z,8.28
2019-05-11T09:18:27.995Z,7.72
2019-05-11T09:20:57.726Z,6.65
2019-05-11T09:23:34.515Z,8.03
2019-05-11T09:25:58.356Z,7.78
2019-05-11T09:28:29.280Z,8.93
2019-05-11T09:30:57.936Z,6.83
2019-05-11T09:33:28.465Z,7.15
2019-05-11T09:35:58.425Z,7.30
2019-05-11T09:38:27.747Z,7.33
2019-05-11T09:40:58.566Z,6.80
2019-05-11T09:43:28.374Z,8.25
2019-05-11T09:45:58.272Z,7.95
2019-05-11T09:48:28.422Z,7.40
2019-05-11T09:50:58.773Z,7.62
2019-05-11T09:53:28.361Z,7.50
2019-05-11T09:55:58.665Z,7.17
2019-05-11T09:58:28.063Z,6.30
2019-05-11T10:00:58.611Z,4.80
2019-05-11T10:03:28.111Z,5.35
2019-05-11T10:05:57.985Z,7.33
2019-05-11T10:08:28.608Z,7.08
2019-05-11T10:10:58.048Z,6.60
2019-05-11T10:13:27.856Z,7.22
2019-05-11T10:16:04.561Z,5.78
2019-05-11T10:18:28.150Z,6.28
2019-05-11T10:20:58.667Z,7.37
2019-05-11T10:23:27.936Z,7.10
2019-05-11T10:25:58.595Z,7.10
2019-05-11T10:28:34.900Z,7.42
2019-05-11T10:31:03.427Z,7.03
2019-05-11T10:33:31.899Z,7.95
2019-05-11T10:36:03.134Z,5.45
2019-05-11T10:38:30.698Z,6.90
2019-05-11T10:40:59.323Z,6.15
2019-05-11T10:43:28.860Z,6.33
2019-05-11T10:45:58.808Z,5.90
2019-05-11T10:48:28.340Z,4.55
2019-05-11T10:50:57.622Z,4.75
2019-05-11T10:53:27.888Z,5.90
2019-05-11T10:55:58.186Z,5.33
2019-05-11T10:58:28.573Z,6.20
2019-05-11T11:00:58.194Z,6.47
2019-05-11T11:03:28.375Z,5.83
2019-05-11T11:05:58.115Z,5.40
2019-05-11T11:08:27.839Z,4.85
2019-05-11T11:10:58.602Z,4.97
2019-05-11T11:13:28.099Z,5.30
2019-05-11T11:15:58.201Z,5.30
2019-05-11T11:18:28.771Z,6.58
2019-05-11T11:20:58.082Z,5.35
2019-05-11T11:23:28.452Z,5.10
2019-05-11T11:25:58.552Z,4.78
2019-05-11T11:28:28.004Z,5.50
2019-05-11T11:30:58.433Z,5.47
2019-05-11T11:33:27.698Z,5.53
2019-05-11T11:35:57.952Z,5.20
2019-05-11T11:38:28.568Z,3.95
2019-05-11T11:40:58.727Z,8.35
2019-05-11T11:43:28.775Z,5.50
2019-05-11T11:45:58.080Z,5.00
2019-05-11T11:48:28.551Z,4.50
2019-05-11T11:50:58.537Z,4.20
2019-05-11T11:53:27.964Z,5.17
2019-05-11T11:55:58.760Z,4.40
2019-05-11T11:58:27.767Z,3.80
2019-05-11T12:00:58.553Z,4.10
2019-05-11T12:03:27.720Z,4.90
2019-05-11T12:05:58.139Z,5.60
2019-05-11T12:08:28.262Z,5.50
2019-05-11T12:10:58.926Z,5.60
2019-05-11T12:13:29.504Z,6.40
2019-05-11T12:15:58.466Z,5.70
2019-05-11T12:18:28.647Z,6.08
2019-05-11T12:20:58.611Z,5.50
2019-05-11T12:23:28.508Z,5.05
2019-05-11T12:25:58.066Z,5.28
2019-05-11T12:28:27.610Z,5.97
2019-05-11T12:30:58.438Z,5.40
2019-05-11T12:33:27.936Z,4.47
2019-05-11T12:35:58.692Z,6.30
2019-05-11T12:38:27.729Z,5.40
2019-05-11T12:40:57.960Z,5.05
2019-05-11T12:43:27.769Z,6.00
2019-05-11T12:45:58.583Z,5.97
2019-05-11T12:48:28.469Z,4.50
2019-05-11T12:50:58.834Z,4.92
2019-05-11T12:53:28.005Z,5.20
2019-05-11T12:55:58.821Z,5.67
2019-05-11T12:58:28.078Z,5.00
2019-05-11T13:00:58.655Z,3.87
2019-05-11T13:03:27.915Z,5.72
2019-05-11T13:05:58.526Z,4.40
2019-05-11T13:08:27.792Z,4.72
2019-05-11T13:10:58.414Z,9.28
2019-05-11T13:13:28.630Z,4.60
2019-05-11T13:15:58.546Z,4.87
2019-05-11T13:18:27.997Z,4.17
2019-05-11T13:20:58.789Z,4.78
2019-05-11T13:23:27.764Z,5.83
2019-05-11T13:25:58.567Z,4.20
2019-05-11T13:28:28.401Z,4.00
2019-05-11T13:30:57.909Z,4.72
2019-05-11T13:33:27.990Z,4.80
2019-05-11T13:35:57.866Z,4.15
2019-05-11T13:38:28.306Z,3.55
2019-05-11T13:40:59.079Z,3.95
2019-05-11T13:43:28.130Z,4.50
2019-05-11T13:45:58.400Z,4.10
2019-05-11T13:48:28.109Z,3.90
2019-05-11T13:50:58.435Z,4.65
2019-05-11T13:53:27.653Z,5.72
2019-05-11T13:55:58.695Z,5.30
2019-05-11T13:58:46.067Z,5.83
2019-05-11T14:01:14.676Z,4.72
2019-05-11T14:03:43.282Z,6.28
2019-05-11T14:06:11.852Z,5.78
2019-05-11T14:08:40.315Z,4.67
2019-05-11T14:11:08.987Z,5.20
2019-05-11T14:13:38.679Z,5.60
2019-05-11T14:16:08.100Z,5.45
2019-05-11T14:18:38.628Z,4.22
2019-05-11T14:21:08.006Z,4.05
2019-05-11T14:23:38.857Z,4.80
2019-05-11T14:26:08.444Z,4.45
2019-05-11T14:28:37.821Z,5.00
2019-05-11T14:31:08.198Z,4.50
2019-05-11T14:33:38.600Z,5.08
2019-05-11T14:36:08.609Z,4.62
2019-05-11T14:38:38.115Z,5.25
2019-05-11T14:41:07.773Z,5.20
2019-05-11T14:43:38.329Z,4.87
2019-05-11T14:46:08.577Z,4.30
2019-05-11T14:48:38.948Z,4.45
2019-05-11T14:51:08.510Z,4.50
2019-05-11T14:53:37.811Z,4.45
2019-05-11T14:56:08.259Z,4.55
2019-05-11T14:58:38.648Z,4.85
2019-05-11T15:01:08.909Z,4.78
2019-05-11T15:03:38.071Z,4.53
2019-05-11T15:06:08.310Z,4.80
2019-05-11T15:08:38.727Z,5.08
2019-05-11T15:11:08.283Z,5.08
2019-05-11T15:13:38.231Z,4.28
2019-05-11T15:16:08.082Z,4.40
2019-05-11T15:18:41.761Z,5.42
2019-05-11T15:21:08.289Z,4.75
2019-05-11T15:23:37.855Z,5.50
2019-05-11T15:26:09.580Z,4.20
2019-05-11T15:28:37.996Z,4.22
2019-05-11T15:31:08.069Z,4.90
2019-05-11T15:33:38.348Z,5.03
2019-05-11T15:36:07.647Z,4.00
2019-05-11T15:38:37.845Z,4.65
2019-05-11T15:41:08.600Z,5.50
2019-05-11T15:43:38.805Z,5.12
2019-05-11T15:46:07.673Z,5.17
2019-05-11T15:48:51.855Z,4.85
2019-05-11T15:51:08.115Z,4.80
2019-05-11T15:53:37.118Z,9.55
2019-05-11T15:56:06.305Z,5.37
2019-05-11T15:58:37.673Z,4.87
2019-05-11T16:01:07.938Z,5.42
2019-05-11T16:03:36.793Z,5.78
2019-05-11T16:06:07.658Z,6.08
2019-05-11T16:08:37.667Z,7.15
2019-05-11T16:11:08.160Z,5.95
2019-05-11T16:13:37.724Z,6.20
2019-05-11T16:16:06.597Z,6.62
2019-05-11T16:18:35.167Z,7.50
2019-05-11T16:21:03.744Z,7.03
2019-05-11T16:23:32.226Z,5.90
2019-05-11T16:26:01.023Z,6.50
2019-05-11T16:28:30.844Z,6.55
2019-05-11T16:30:59.615Z,5.97
2019-05-11T16:33:28.158Z,6.00
2019-05-11T16:36:00.511Z,6.28
2019-05-11T16:38:29.048Z,6.62
2019-05-11T16:40:58.461Z,8.50
2019-05-11T16:43:28.192Z,8.55
2019-05-11T16:45:57.981Z,9.15
2019-05-11T16:48:27.706Z,7.25
2019-05-11T16:50:57.926Z,8.70
2019-05-11T16:53:28.449Z,8.63
2019-05-11T16:55:57.702Z,8.80
2019-05-11T16:58:27.861Z,7.92
2019-05-11T17:00:58.194Z,7.08
2019-05-11T17:03:27.884Z,6.90
2019-05-11T17:05:58.830Z,6.25
2019-05-11T17:08:27.848Z,7.28
2019-05-11T17:10:59.012Z,7.22
2019-05-11T17:13:28.238Z,7.95
2019-05-11T17:15:58.221Z,8.00
2019-05-11T17:18:28.383Z,7.50
2019-05-11T17:20:58.414Z,7.75
2019-05-11T17:23:30.563Z,8.45
2019-05-11T17:25:58.193Z,9.20
2019-05-11T17:28:26.736Z,11.57
2019-05-11T17:30:55.381Z,10.88
2019-05-11T17:33:23.958Z,13.75
2019-05-11T17:35:52.557Z,15.75
2019-05-11T17:38:21.192Z,14.95
2019-05-11T17:40:49.810Z,9.70
2019-05-11T17:43:18.435Z,17.12
2019-05-11T17:45:47.967Z,21.15
2019-05-11T17:48:17.862Z,29.63
2019-05-11T17:50:46.780Z,57.13
2019-05-11T17:53:15.445Z,45.98
2019-05-11T17:55:44.160Z,45.95
2019-05-11T17:58:12.797Z,28.15
2019-05-11T18:00:41.374Z,42.00
2019-05-11T18:03:11.403Z,44.15
2019-05-11T18:05:40.198Z,43.42
2019-05-11T18:08:08.933Z,30.50
2019-05-11T18:10:38.435Z,22.22
2019-05-11T18:13:07.305Z,17.73
2019-05-11T18:15:37.917Z,15.05
2019-05-11T18:18:09.196Z,17.07
2019-05-11T18:20:38.049Z,28.25
2019-05-11T18:23:08.238Z,27.98
2019-05-11T18:25:39.005Z,20.85
2019-05-11T18:28:07.749Z,29.85
2019-05-11T18:30:38.622Z,24.57
2019-05-11T18:33:08.322Z,23.10
2019-05-11T18:35:37.184Z,19.12
2019-05-11T18:38:08.347Z,19.45
2019-05-11T18:40:38.189Z,20.85
2019-05-11T18:43:08.576Z,20.85
2019-05-11T18:45:38.291Z,19.60
2019-05-11T18:48:08.075Z,18.92
2019-05-11T18:50:38.772Z,24.45
2019-05-11T18:53:09.158Z,19.90
2019-05-11T18:55:37.968Z,21.87
2019-05-11T18:58:06.584Z,20.20
2019-05-11T19:00:35.159Z,21.48
2019-05-11T19:03:03.718Z,19.90
2019-05-11T19:05:33.202Z,16.60
2019-05-11T19:08:01.742Z,19.45
2019-05-11T19:10:30.395Z,17.25
2019-05-11T19:12:59.126Z,19.12
2019-05-11T19:15:27.799Z,18.42
2019-05-11T19:17:58.114Z,15.93
2019-05-11T19:20:28.557Z,18.10
2019-05-11T19:22:59.073Z,18.45
2019-05-11T19:25:27.752Z,19.27
2019-05-11T19:27:58.781Z,17.77
2019-05-11T19:30:27.737Z,15.63
2019-05-11T19:32:58.862Z,16.97
2019-05-11T19:35:28.656Z,17.55
2019-05-11T19:37:57.896Z,17.85
2019-05-11T19:40:26.596Z,16.87
2019-05-11T19:42:58.720Z,18.05
2019-05-11T19:45:29.036Z,15.70
2019-05-11T19:47:57.762Z,15.75
2019-05-11T19:50:26.934Z,15.50
2019-05-11T19:52:57.815Z,15.48
2019-05-11T19:55:28.345Z,14.63
2019-05-11T19:57:56.561Z,17.80
2019-05-11T20:00:25.173Z,18.02
2019-05-11T20:02:53.816Z,13.68
2019-05-11T20:05:22.769Z,12.80
2019-05-11T20:07:51.416Z,13.78
2019-05-11T20:10:19.989Z,13.50
2019-05-11T20:12:48.934Z,15.93
2019-05-11T20:15:18.920Z,13.68
2019-05-11T20:17:48.648Z,14.90
2019-05-11T20:20:18.537Z,15.15
2019-05-11T20:22:48.420Z,12.78
2019-05-11T20:25:18.858Z,15.25
2019-05-11T20:27:48.671Z,13.15
2019-05-11T20:30:19.116Z,13.22
2019-05-11T20:32:49.282Z,13.32
2019-05-11T20:35:18.096Z,16.20
2019-05-11T20:37:46.761Z,17.17
2019-05-11T20:40:15.482Z,16.62
2019-05-11T20:42:44.131Z,17.45
2019-05-11T20:45:12.856Z,17.77
2019-05-11T20:47:42.107Z,18.02
2019-05-11T20:50:10.766Z,15.30
2019-05-11T20:52:41.024Z,16.30
2019-05-11T20:55:09.777Z,15.72
2019-05-11T20:57:39.372Z,14.80
2019-05-11T21:00:10.373Z,13.08
2019-05-11T21:02:39.019Z,13.08
2019-05-11T21:05:09.095Z,13.00
2019-05-11T21:07:38.745Z,14.85
2019-05-11T21:10:09.079Z,14.60
2019-05-11T21:12:38.743Z,13.98
2019-05-11T21:15:09.540Z,13.55
2019-05-11T21:17:38.367Z,11.95
2019-05-11T21:20:08.871Z,10.58
2019-05-11T21:22:40.480Z,11.10
2019-05-11T21:25:09.283Z,11.95
2019-05-11T21:27:38.704Z,10.70
2019-05-11T21:30:09.527Z,10.82
2019-05-11T21:32:39.467Z,10.98
2019-05-11T21:35:09.332Z,10.08
2019-05-11T21:37:38.991Z,10.23
2019-05-11T21:40:08.892Z,10.40
2019-05-11T21:42:39.012Z,10.60
2019-05-11T21:45:09.941Z,8.80
2019-05-11T21:47:39.443Z,8.15
2019-05-11T21:50:09.808Z,9.50
2019-05-11T21:52:38.938Z,8.75
2019-05-11T21:55:09.728Z,9.25
2019-05-11T21:57:38.690Z,9.65
2019-05-11T22:00:10.586Z,9.80
2019-05-11T22:02:39.241Z,10.78
2019-05-11T22:05:09.790Z,10.05
2019-05-11T22:07:41.838Z,9.15
2019-05-11T22:10:09.761Z,9.58
2019-05-11T22:12:39.220Z,10.65
2019-05-11T22:15:10.375Z,10.13
2019-05-11T22:17:40.915Z,10.10
2019-05-11T22:20:10.127Z,11.48
2019-05-11T22:22:39.434Z,12.20
2019-05-11T22:25:10.483Z,11.20
2019-05-11T22:27:40.620Z,10.18
2019-05-11T22:30:10.236Z,10.23
2019-05-11T22:32:39.118Z,10.05
2019-05-11T22:35:08.884Z,9.98
2019-05-11T22:37:38.625Z,10.55
2019-05-11T22:40:09.302Z,14.75
2019-05-11T22:42:38.564Z,11.80
2019-05-11T22:45:08.779Z,10.05
2019-05-11T22:47:39.148Z,11.30
2019-05-11T22:50:11.669Z,12.37
2019-05-11T22:52:40.875Z,11.60
2019-05-11T22:55:11.883Z,11.30
2019-05-11T22:57:41.816Z,9.88
2019-05-11T23:00:11.326Z,9.60
2019-05-11T23:02:39.944Z,10.43
2019-05-11T23:05:09.104Z,10.40
2019-05-11T23:07:41.325Z,10.35
2019-05-11T23:10:10.372Z,10.30
2019-05-11T23:12:39.042Z,8.28
2019-05-11T23:15:12.688Z,8.98
2019-05-11T23:17:41.891Z,9.55
2019-05-11T23:20:11.285Z,10.10
2019-05-11T23:22:58.022Z,9.80
2019-05-11T23:25:19.364Z,10.70
2019-05-11T23:27:48.694Z,10.45
2019-05-11T23:30:20.085Z,9.43
2019-05-11T23:32:49.834Z,8.50
2019-05-11T23:35:19.150Z,9.95
2019-05-11T23:37:49.482Z,9.68
2019-05-11T23:40:19.050Z,8.88
2019-05-11T23:42:49.060Z,9.75
2019-05-11T23:45:19.008Z,8.30
2019-05-11T23:47:48.917Z,7.95
2019-05-11T23:50:19.232Z,7.30
2019-05-11T23:52:50.232Z,7.58
2019-05-11T23:55:19.320Z,8.55
2019-05-11T23:57:49.011Z,8.25
